sensor_id;sensor_type;location;lat;lon;timestamp;P1;durP1;ratioP1;P2;durP2;ratioP2
39276;SDS011;63149;48.086;-1.606;2022-12-18T06:02:52;50.47;;;23.33;;
39276;SDS011;63149;48.086;-1.606;2022-12-18T06:05:19;52.15;;;23.05;;
39276;SDS011;63149;48.086;-1.606;2022-12-18T06:07:46;51.55;;;23.75;;
39276;SDS011;63149;48.086;-1.606;2022-12-18T06:10:13;54.13;;;24.15;;
39276;SDS011;63149;48.086;-1.606;2022-12-18T06:12:40;54.55;;;23.63;;
39276;SDS011;63149;48.086;-1.606;2022-12-18T06:15:08;54.53;;;23.63;;
39276;SDS011;63149;48.086;-1.606;2022-12-18T06:17:35;56.08;;;25.13;;
39276;SDS011;63149;48.086;-1.606;2022-12-18T06:20:04;50.55;;;23.30;;
39276;SDS011;63149;48.086;-1.606;2022-12-18T06:22:32;51.90;;;24.10;;
39276;SDS011;63149;48.086;-1.606;2022-12-18T06:25:00;47.53;;;23.50;;
39276;SDS011;63149;48.086;-1.606;2022-12-18T06:27:27;45.85;;;22.40;;
39276;SDS011;63149;48.086;-1.606;2022-12-18T06:29:54;47.53;;;23.33;;
39276;SDS011;63149;48.086;-1.606;2022-12-18T06:32:21;53.78;;;24.00;;
39276;SDS011;63149;48.086;-1.606;2022-12-18T06:34:48;47.33;;;24.02;;
39276;SDS011;63149;48.086;-1.606;2022-12-18T06:37:16;44.58;;;22.23;;
39276;SDS011;63149;48.086;-1.606;2022-12-18T06:39:43;52.22;;;23.30;;
39276;SDS011;63149;48.086;-1.606;2022-12-18T06:42:10;50.47;;;23.00;;
39276;SDS011;63149;48.086;-1.606;2022-12-18T06:44:37;46.70;;;23.02;;
39276;SDS011;63149;48.086;-1.606;2022-12-18T06:47:04;49.88;;;22.98;;
39276;SDS011;63149;48.086;-1.606;2022-12-18T06:49:31;54.15;;;24.13;;
39276;SDS011;63149;48.086;-1.606;2022-12-18T06:51:58;50.28;;;23.88;;
39276;SDS011;63149;48.086;-1.606;2022-12-18T06:54:26;50.42;;;22.80;;
39276;SDS011;63149;48.086;-1.606;2022-12-18T06:56:53;53.13;;;24.77;;
39276;SDS011;63149;48.086;-1.606;2022-12-18T06:59:20;52.20;;;23.10;;
39276;SDS011;63149;48.086;-1.606;2022-12-18T07:01:47;51.10;;;25.80;;
39276;SDS011;63149;48.086;-1.606;2022-12-18T07:04:14;52.78;;;25.15;;
39276;SDS011;63149;48.086;-1.606;2022-12-18T07:06:41;54.50;;;24.58;;
39276;SDS011;63149;48.086;-1.606;2022-12-18T07:09:08;50.38;;;22.92;;
39276;SDS011;63149;48.086;-1.606;2022-12-18T07:11:36;50.58;;;24.00;;
39276;SDS011;63149;48.086;-1.606;2022-12-18T07:14:03;54.35;;;24.63;;
39276;SDS011;63149;48.086;-1.606;2022-12-18T07:16:30;55.80;;;25.02;;
39276;SDS011;63149;48.086;-1.606;2022-12-18T07:18:57;49.45;;;22.90;;
39276;SDS011;63149;48.086;-1.606;2022-12-18T07:21:24;50.83;;;24.30;;
39276;SDS011;63149;48.086;-1.606;2022-12-18T07:23:51;50.85;;;23.50;;
39276;SDS011;63149;48.086;-1.606;2022-12-18T07:26:19;52.42;;;23.67;;
39276;SDS011;63149;48.086;-1.606;2022-12-18T07:28:49;52.63;;;24.52;;
39276;SDS011;63149;48.086;-1.606;2022-12-18T07:31:17;55.30;;;25.83;;
39276;SDS011;63149;48.086;-1.606;2022-12-18T07:33:45;49.47;;;23.25;;
39276;SDS011;63149;48.086;-1.606;2022-12-18T07:36:13;51.15;;;22.88;;
39276;SDS011;63149;48.086;-1.606;2022-12-18T07:38:40;54.17;;;23.17;;
39276;SDS011;63149;48.086;-1.606;2022-12-18T07:41:08;60.75;;;25.55;;
39276;SDS011;63149;48.086;-1.606;2022-12-18T07:43:36;51.92;;;24.17;;
39276;SDS011;63149;48.086;-1.606;2022-12-18T07:46:05;54.90;;;23.95;;
39276;SDS011;63149;48.086;-1.606;2022-12-18T07:48:33;46.22;;;23.75;;
39276;SDS011;63149;48.086;-1.606;2022-12-18T07:51:01;54.35;;;25.13;;
39276;SDS011;63149;48.086;-1.606;2022-12-18T07:53:29;53.88;;;25.83;;
39276;SDS011;63149;48.086;-1.606;2022-12-18T07:55:56;58.08;;;25.98;;
39276;SDS011;63149;48.086;-1.606;2022-12-18T07:58:23;55.88;;;25.50;;
39276;SDS011;63149;48.086;-1.606;2022-12-18T08:00:51;61.97;;;27.20;;
39276;SDS011;63149;48.086;-1.606;2022-12-18T08:03:19;54.30;;;24.30;;
39276;SDS011;63149;48.086;-1.606;2022-12-18T08:05:46;54.13;;;25.35;;
39276;SDS011;63149;48.086;-1.606;2022-12-18T08:08:13;55.80;;;25.80;;
39276;SDS011;63149;48.086;-1.606;2022-12-18T08:10:40;58.63;;;25.90;;
39276;SDS011;63149;48.086;-1.606;2022-12-18T08:13:07;57.35;;;25.80;;
39276;SDS011;63149;48.086;-1.606;2022-12-18T08:15:34;61.85;;;26.65;;
39276;SDS011;63149;48.086;-1.606;2022-12-18T08:18:01;54.35;;;24.90;;
39276;SDS011;63149;48.086;-1.606;2022-12-18T08:20:29;57.03;;;25.60;;
39276;SDS011;63149;48.086;-1.606;2022-12-18T08:22:56;55.08;;;26.33;;
39276;SDS011;63149;48.086;-1.606;2022-12-18T08:25:23;62.20;;;25.73;;
39276;SDS011;63149;48.086;-1.606;2022-12-18T08:27:50;55.67;;;25.30;;
39276;SDS011;63149;48.086;-1.606;2022-12-18T08:30:17;60.60;;;27.20;;
39276;SDS011;63149;48.086;-1.606;2022-12-18T08:32:44;56.72;;;26.08;;
39276;SDS011;63149;48.086;-1.606;2022-12-18T08:35:11;59.03;;;25.80;;
39276;SDS011;63149;48.086;-1.606;2022-12-18T08:37:39;61.53;;;26.02;;
39276;SDS011;63149;48.086;-1.606;2022-12-18T08:40:07;58.40;;;26.80;;
39276;SDS011;63149;48.086;-1.606;2022-12-18T08:42:35;62.42;;;28.02;;
39276;SDS011;63149;48.086;-1.606;2022-12-18T08:45:19;64.30;;;26.92;;
39276;SDS011;63149;48.086;-1.606;2022-12-18T08:47:46;65.60;;;28.85;;
39276;SDS011;63149;48.086;-1.606;2022-12-18T08:50:13;69.07;;;27.25;;
39276;SDS011;63149;48.086;-1.606;2022-12-18T08:52:41;61.45;;;27.88;;
39276;SDS011;63149;48.086;-1.606;2022-12-18T08:55:08;66.20;;;28.20;;
39276;SDS011;63149;48.086;-1.606;2022-12-18T08:57:36;58.65;;;26.15;;
39276;SDS011;63149;48.086;-1.606;2022-12-18T09:00:03;58.38;;;27.73;;
39276;SDS011;63149;48.086;-1.606;2022-12-18T09:02:30;61.67;;;27.20;;
39276;SDS011;63149;48.086;-1.606;2022-12-18T09:04:57;66.13;;;28.88;;
39276;SDS011;63149;48.086;-1.606;2022-12-18T09:07:24;62.83;;;28.00;;
39276;SDS011;63149;48.086;-1.606;2022-12-18T09:09:53;72.78;;;28.30;;
39276;SDS011;63149;48.086;-1.606;2022-12-18T09:12:20;56.80;;;26.13;;
39276;SDS011;63149;48.086;-1.606;2022-12-18T09:14:47;69.10;;;29.55;;
39276;SDS011;63149;48.086;-1.606;2022-12-18T09:17:14;71.40;;;29.88;;
39276;SDS011;63149;48.086;-1.606;2022-12-18T09:19:41;71.43;;;28.33;;
39276;SDS011;63149;48.086;-1.606;2022-12-18T09:22:09;68.57;;;30.30;;
39276;SDS011;63149;48.086;-1.606;2022-12-18T09:24:35;62.92;;;27.85;;
39276;SDS011;63149;48.086;-1.606;2022-12-18T09:27:04;66.63;;;29.98;;
39276;SDS011;63149;48.086;-1.606;2022-12-18T09:29:31;60.65;;;27.15;;
39276;SDS011;63149;48.086;-1.606;2022-12-18T09:31:58;63.42;;;29.48;;
39276;SDS011;63149;48.086;-1.606;2022-12-18T09:34:25;67.35;;;29.38;;
39276;SDS011;63149;48.086;-1.606;2022-12-18T09:36:52;69.00;;;29.38;;
39276;SDS011;63149;48.086;-1.606;2022-12-18T09:39:19;65.82;;;28.88;;
39276;SDS011;63149;48.086;-1.606;2022-12-18T09:41:47;68.80;;;28.45;;
39276;SDS011;63149;48.086;-1.606;2022-12-18T09:44:21;66.75;;;28.77;;
39276;SDS011;63149;48.086;-1.606;2022-12-18T09:46:52;63.35;;;28.13;;
39276;SDS011;63149;48.086;-1.606;2022-12-18T09:49:26;65.70;;;28.38;;
39276;SDS011;63149;48.086;-1.606;2022-12-18T09:51:57;59.80;;;28.27;;
39276;SDS011;63149;48.086;-1.606;2022-12-18T09:54:30;72.55;;;29.05;;
39276;SDS011;63149;48.086;-1.606;2022-12-18T09:57:02;71.22;;;30.20;;
39276;SDS011;63149;48.086;-1.606;2022-12-18T09:59:33;76.53;;;31.38;;
39276;SDS011;63149;48.086;-1.606;2022-12-18T10:02:11;74.88;;;29.67;;
39276;SDS011;63149;48.086;-1.606;2022-12-18T10:04:41;72.78;;;30.20;;
39276;SDS011;63149;48.086;-1.606;2022-12-18T10:07:09;73.00;;;30.20;;
39276;SDS011;63149;48.086;-1.606;2022-12-18T10:09:43;81.22;;;32.50;;
39276;SDS011;63149;48.086;-1.606;2022-12-18T10:12:19;84.95;;;31.90;;
39276;SDS011;63149;48.086;-1.606;2022-12-18T10:14:55;70.90;;;30.77;;
39276;SDS011;63149;48.086;-1.606;2022-12-18T10:17:26;81.07;;;31.65;;
39276;SDS011;63149;48.086;-1.606;2022-12-18T10:20:03;75.43;;;30.33;;
39276;SDS011;63149;48.086;-1.606;2022-12-18T10:22:41;79.63;;;32.65;;
39276;SDS011;63149;48.086;-1.606;2022-12-18T10:25:17;78.68;;;31.45;;
39276;SDS011;63149;48.086;-1.606;2022-12-18T10:27:48;82.82;;;32.67;;
39276;SDS011;63149;48.086;-1.606;2022-12-18T10:30:22;75.60;;;30.30;;
39276;SDS011;63149;48.086;-1.606;2022-12-18T10:32:49;82.18;;;32.58;;
39276;SDS011;63149;48.086;-1.606;2022-12-18T10:35:18;90.35;;;35.10;;
39276;SDS011;63149;48.086;-1.606;2022-12-18T10:40:50;70.57;;;29.83;;
39276;SDS011;63149;48.086;-1.606;2022-12-18T10:43:19;79.40;;;32.65;;
39276;SDS011;63149;48.086;-1.606;2022-12-18T10:46:03;83.88;;;34.08;;
39276;SDS011;63149;48.086;-1.606;2022-12-18T10:48:39;88.65;;;31.92;;
39276;SDS011;63149;48.086;-1.606;2022-12-18T10:51:18;77.57;;;31.50;;
39276;SDS011;63149;48.086;-1.606;2022-12-18T10:53:50;75.93;;;30.20;;
39276;SDS011;63149;48.086;-1.606;2022-12-18T10:56:20;81.93;;;33.22;;
39276;SDS011;63149;48.086;-1.606;2022-12-18T11:05:10;81.68;;;33.20;;
39276;SDS011;63149;48.086;-1.606;2022-12-18T11:07:51;73.53;;;31.70;;
39276;SDS011;63149;48.086;-1.606;2022-12-18T11:10:20;83.50;;;34.10;;
39276;SDS011;63149;48.086;-1.606;2022-12-18T11:12:48;80.80;;;32.38;;
39276;SDS011;63149;48.086;-1.606;2022-12-18T11:15:15;71.85;;;30.58;;
39276;SDS011;63149;48.086;-1.606;2022-12-18T11:17:47;77.00;;;33.00;;
39276;SDS011;63149;48.086;-1.606;2022-12-18T11:20:25;73.60;;;33.20;;
39276;SDS011;63149;48.086;-1.606;2022-12-18T11:22:57;59.92;;;25.23;;
39276;SDS011;63149;48.086;-1.606;2022-12-18T11:28:02;69.55;;;31.40;;
39276;SDS011;63149;48.086;-1.606;2022-12-18T11:30:30;78.18;;;33.05;;
39276;SDS011;63149;48.086;-1.606;2022-12-18T11:38:13;78.43;;;33.70;;
39276;SDS011;63149;48.086;-1.606;2022-12-18T11:45:52;60.03;;;25.97;;
39276;SDS011;63149;48.086;-1.606;2022-12-18T11:48:22;68.40;;;31.55;;
39276;SDS011;63149;48.086;-1.606;2022-12-18T11:56:08;70.68;;;32.63;;
39276;SDS011;63149;48.086;-1.606;2022-12-18T11:58:53;75.50;;;32.00;;
39276;SDS011;63149;48.086;-1.606;2022-12-18T12:01:37;74.55;;;32.05;;
39276;SDS011;63149;48.086;-1.606;2022-12-18T12:07:10;75.30;;;31.10;;
39276;SDS011;63149;48.086;-1.606;2022-12-18T12:09:46;68.78;;;30.80;;
39276;SDS011;63149;48.086;-1.606;2022-12-18T12:12:23;76.18;;;32.10;;
39276;SDS011;63149;48.086;-1.606;2022-12-18T12:15:12;66.90;;;30.65;;
39276;SDS011;63149;48.086;-1.606;2022-12-18T12:17:47;79.35;;;33.00;;
39276;SDS011;63149;48.086;-1.606;2022-12-18T12:20:22;72.82;;;33.30;;
39276;SDS011;63149;48.086;-1.606;2022-12-18T12:22:55;74.78;;;32.53;;
39276;SDS011;63149;48.086;-1.606;2022-12-18T12:25:31;69.38;;;33.85;;
39276;SDS011;63149;48.086;-1.606;2022-12-18T12:28:15;77.47;;;34.22;;
39276;SDS011;63149;48.086;-1.606;2022-12-18T12:30:53;75.85;;;31.92;;
39276;SDS011;63149;48.086;-1.606;2022-12-18T12:33:31;75.53;;;33.88;;
39276;SDS011;63149;48.086;-1.606;2022-12-18T12:36:07;68.70;;;31.20;;
39276;SDS011;63149;48.086;-1.606;2022-12-18T12:38:44;66.05;;;30.95;;
39276;SDS011;63149;48.086;-1.606;2022-12-18T12:41:16;69.32;;;32.45;;
39276;SDS011;63149;48.086;-1.606;2022-12-18T12:44:07;76.25;;;31.98;;
39276;SDS011;63149;48.086;-1.606;2022-12-18T12:46:39;77.07;;;33.90;;
39276;SDS011;63149;48.086;-1.606;2022-12-18T12:49:09;64.93;;;32.25;;
39276;SDS011;63149;48.086;-1.606;2022-12-18T12:51:41;80.55;;;35.30;;
39276;SDS011;63149;48.086;-1.606;2022-12-18T12:54:11;75.67;;;33.50;;
39276;SDS011;63149;48.086;-1.606;2022-12-18T12:56:44;82.47;;;36.63;;
39276;SDS011;63149;48.086;-1.606;2022-12-18T12:59:19;76.03;;;34.25;;
39276;SDS011;63149;48.086;-1.606;2022-12-18T13:01:54;76.90;;;31.73;;
39276;SDS011;63149;48.086;-1.606;2022-12-18T13:04:27;85.72;;;34.20;;
39276;SDS011;63149;48.086;-1.606;2022-12-18T13:07:03;75.85;;;34.47;;
39276;SDS011;63149;48.086;-1.606;2022-12-18T13:10:10;69.93;;;31.95;;
39276;SDS011;63149;48.086;-1.606;2022-12-18T13:12:53;72.32;;;33.00;;
39276;SDS011;63149;48.086;-1.606;2022-12-18T13:15:23;75.30;;;34.15;;
39276;SDS011;63149;48.086;-1.606;2022-12-18T13:20:48;84.22;;;37.10;;
39276;SDS011;63149;48.086;-1.606;2022-12-18T13:23:28;87.57;;;35.78;;
39276;SDS011;63149;48.086;-1.606;2022-12-18T13:25:58;76.53;;;37.15;;
39276;SDS011;63149;48.086;-1.606;2022-12-18T13:34:34;80.90;;;36.65;;
39276;SDS011;63149;48.086;-1.606;2022-12-18T13:43:19;87.60;;;36.40;;
39276;SDS011;63149;48.086;-1.606;2022-12-18T13:45:59;88.10;;;36.35;;
39276;SDS011;63149;48.086;-1.606;2022-12-18T13:48:32;91.63;;;37.33;;
39276;SDS011;63149;48.086;-1.606;2022-12-18T13:51:03;78.00;;;35.80;;
39276;SDS011;63149;48.086;-1.606;2022-12-18T13:53:34;75.07;;;34.35;;
39276;SDS011;63149;48.086;-1.606;2022-12-18T13:56:04;83.43;;;37.38;;
39276;SDS011;63149;48.086;-1.606;2022-12-18T13:58:33;73.78;;;34.80;;
39276;SDS011;63149;48.086;-1.606;2022-12-18T14:01:01;84.95;;;37.13;;
39276;SDS011;63149;48.086;-1.606;2022-12-18T14:03:29;83.85;;;35.20;;
39276;SDS011;63149;48.086;-1.606;2022-12-18T14:05:59;82.22;;;35.55;;
39276;SDS011;63149;48.086;-1.606;2022-12-18T14:08:33;79.15;;;34.90;;
39276;SDS011;63149;48.086;-1.606;2022-12-18T14:11:03;80.50;;;35.15;;
39276;SDS011;63149;48.086;-1.606;2022-12-18T14:13:33;79.85;;;33.58;;
39276;SDS011;63149;48.086;-1.606;2022-12-18T14:16:04;79.72;;;32.60;;
39276;SDS011;63149;48.086;-1.606;2022-12-18T14:18:36;80.60;;;34.58;;
39276;SDS011;63149;48.086;-1.606;2022-12-18T14:21:15;79.75;;;34.08;;
39276;SDS011;63149;48.086;-1.606;2022-12-18T14:23:46;69.72;;;31.35;;
39276;SDS011;63149;48.086;-1.606;2022-12-18T14:26:20;72.97;;;32.65;;
39276;SDS011;63149;48.086;-1.606;2022-12-18T14:28:51;62.60;;;30.23;;
39276;SDS011;63149;48.086;-1.606;2022-12-18T14:31:19;63.95;;;29.83;;
39276;SDS011;63149;48.086;-1.606;2022-12-18T14:33:47;76.30;;;31.38;;
39276;SDS011;63149;48.086;-1.606;2022-12-18T14:36:15;68.00;;;30.25;;
39276;SDS011;63149;48.086;-1.606;2022-12-18T14:38:43;68.95;;;30.85;;
39276;SDS011;63149;48.086;-1.606;2022-12-18T14:43:44;71.35;;;30.70;;
39276;SDS011;63149;48.086;-1.606;2022-12-18T14:46:26;67.38;;;29.83;;
39276;SDS011;63149;48.086;-1.606;2022-12-18T14:48:59;68.97;;;32.70;;
39276;SDS011;63149;48.086;-1.606;2022-12-18T14:51:29;65.05;;;30.77;;
39276;SDS011;63149;48.086;-1.606;2022-12-18T14:53:57;70.28;;;31.60;;
39276;SDS011;63149;48.086;-1.606;2022-12-18T14:56:27;71.25;;;30.48;;
39276;SDS011;63149;48.086;-1.606;2022-12-18T14:58:56;64.90;;;30.80;;
39276;SDS011;63149;48.086;-1.606;2022-12-18T15:01:29;66.80;;;32.25;;
39276;SDS011;63149;48.086;-1.606;2022-12-18T15:03:59;69.15;;;31.50;;
39276;SDS011;63149;48.086;-1.606;2022-12-18T15:06:29;69.40;;;32.20;;
39276;SDS011;63149;48.086;-1.606;2022-12-18T15:08:58;71.40;;;33.13;;
39276;SDS011;63149;48.086;-1.606;2022-12-18T15:11:27;65.18;;;31.20;;
39276;SDS011;63149;48.086;-1.606;2022-12-18T15:13:58;64.13;;;29.63;;
39276;SDS011;63149;48.086;-1.606;2022-12-18T15:16:26;69.45;;;31.73;;
39276;SDS011;63149;48.086;-1.606;2022-12-18T15:18:55;97.45;;;44.75;;
39276;SDS011;63149;48.086;-1.606;2022-12-18T15:21:22;106.47;;;43.78;;
39276;SDS011;63149;48.086;-1.606;2022-12-18T15:23:50;76.35;;;36.05;;
39276;SDS011;63149;48.086;-1.606;2022-12-18T15:26:18;72.50;;;35.35;;
39276;SDS011;63149;48.086;-1.606;2022-12-18T15:28:48;62.63;;;32.67;;
39276;SDS011;63149;48.086;-1.606;2022-12-18T15:31:21;69.07;;;32.95;;
39276;SDS011;63149;48.086;-1.606;2022-12-18T15:34:05;65.22;;;30.85;;
39276;SDS011;63149;48.086;-1.606;2022-12-18T15:36:40;68.35;;;31.10;;
39276;SDS011;63149;48.086;-1.606;2022-12-18T15:39:09;60.15;;;30.45;;
39276;SDS011;63149;48.086;-1.606;2022-12-18T15:41:38;97.63;;;45.13;;
39276;SDS011;63149;48.086;-1.606;2022-12-18T15:44:16;51.40;;;26.25;;
39276;SDS011;63149;48.086;-1.606;2022-12-18T15:46:48;57.95;;;26.40;;
39276;SDS011;63149;48.086;-1.606;2022-12-18T15:49:16;50.17;;;24.80;;
39276;SDS011;63149;48.086;-1.606;2022-12-18T15:51:43;51.20;;;26.08;;
39276;SDS011;63149;48.086;-1.606;2022-12-18T15:54:11;44.85;;;25.25;;
39276;SDS011;63149;48.086;-1.606;2022-12-18T15:56:41;43.40;;;23.75;;
39276;SDS011;63149;48.086;-1.606;2022-12-18T15:59:40;56.38;;;29.25;;
39276;SDS011;63149;48.086;-1.606;2022-12-18T16:02:08;55.38;;;31.75;;
39276;SDS011;63149;48.086;-1.606;2022-12-18T16:04:45;70.30;;;39.53;;
39276;SDS011;63149;48.086;-1.606;2022-12-18T16:07:12;59.08;;;28.83;;
39276;SDS011;63149;48.086;-1.606;2022-12-18T16:09:39;59.63;;;24.90;;
39276;SDS011;63149;48.086;-1.606;2022-12-18T16:12:09;52.30;;;25.35;;
39276;SDS011;63149;48.086;-1.606;2022-12-18T16:14:43;45.88;;;23.77;;
39276;SDS011;63149;48.086;-1.606;2022-12-18T16:17:10;93.00;;;42.63;;
39276;SDS011;63149;48.086;-1.606;2022-12-18T16:19:39;59.75;;;31.17;;
39276;SDS011;63149;48.086;-1.606;2022-12-18T16:22:13;64.10;;;32.90;;
39276;SDS011;63149;48.086;-1.606;2022-12-18T16:24:50;56.75;;;25.65;;
39276;SDS011;63149;48.086;-1.606;2022-12-18T16:27:18;44.60;;;25.92;;
39276;SDS011;63149;48.086;-1.606;2022-12-18T16:29:45;46.30;;;25.02;;
39276;SDS011;63149;48.086;-1.606;2022-12-18T16:32:13;43.63;;;22.48;;
39276;SDS011;63149;48.086;-1.606;2022-12-18T16:34:42;38.53;;;22.73;;
39276;SDS011;63149;48.086;-1.606;2022-12-18T16:37:12;38.13;;;22.65;;
39276;SDS011;63149;48.086;-1.606;2022-12-18T16:39:40;38.33;;;21.15;;
39276;SDS011;63149;48.086;-1.606;2022-12-18T16:42:09;34.05;;;18.45;;
39276;SDS011;63149;48.086;-1.606;2022-12-18T16:44:39;43.78;;;20.85;;
39276;SDS011;63149;48.086;-1.606;2022-12-18T16:47:06;36.92;;;19.70;;
39276;SDS011;63149;48.086;-1.606;2022-12-18T16:49:33;35.78;;;18.98;;
39276;SDS011;63149;48.086;-1.606;2022-12-18T16:52:00;33.33;;;19.27;;
39276;SDS011;63149;48.086;-1.606;2022-12-18T16:54:28;30.38;;;17.25;;
39276;SDS011;63149;48.086;-1.606;2022-12-18T16:56:55;33.40;;;22.17;;
39276;SDS011;63149;48.086;-1.606;2022-12-18T16:59:23;34.03;;;19.00;;
39276;SDS011;63149;48.086;-1.606;2022-12-18T17:01:51;32.75;;;19.75;;
39276;SDS011;63149;48.086;-1.606;2022-12-18T17:04:19;33.58;;;20.15;;
39276;SDS011;63149;48.086;-1.606;2022-12-18T17:06:46;34.38;;;20.85;;
39276;SDS011;63149;48.086;-1.606;2022-12-18T17:09:16;29.70;;;16.88;;
39276;SDS011;63149;48.086;-1.606;2022-12-18T17:11:46;30.67;;;18.25;;
39276;SDS011;63149;48.086;-1.606;2022-12-18T17:14:14;29.95;;;15.90;;
39276;SDS011;63149;48.086;-1.606;2022-12-18T17:16:41;29.52;;;16.55;;
39276;SDS011;63149;48.086;-1.606;2022-12-18T17:19:09;29.55;;;17.65;;
39276;SDS011;63149;48.086;-1.606;2022-12-18T17:21:36;31.42;;;17.35;;
39276;SDS011;63149;48.086;-1.606;2022-12-18T17:24:03;31.20;;;19.02;;
39276;SDS011;63149;48.086;-1.606;2022-12-18T17:26:31;29.58;;;18.75;;
39276;SDS011;63149;48.086;-1.606;2022-12-18T17:28:59;33.40;;;18.15;;
39276;SDS011;63149;48.086;-1.606;2022-12-18T17:31:26;31.38;;;20.77;;
39276;SDS011;63149;48.086;-1.606;2022-12-18T17:33:54;26.48;;;17.70;;
39276;SDS011;63149;48.086;-1.606;2022-12-18T17:36:22;32.70;;;21.73;;
39276;SDS011;63149;48.086;-1.606;2022-12-18T17:38:53;25.02;;;16.00;;
39276;SDS011;63149;48.086;-1.606;2022-12-18T17:41:21;26.10;;;15.98;;
39276;SDS011;63149;48.086;-1.606;2022-12-18T17:43:52;31.55;;;20.00;;
39276;SDS011;63149;48.086;-1.606;2022-12-18T17:46:21;32.90;;;20.05;;
39276;SDS011;63149;48.086;-1.606;2022-12-18T17:48:50;36.53;;;23.13;;
39276;SDS011;63149;48.086;-1.606;2022-12-18T17:51:17;29.33;;;18.27;;
39276;SDS011;63149;48.086;-1.606;2022-12-18T17:53:44;52.58;;;28.98;;
39276;SDS011;63149;48.086;-1.606;2022-12-18T17:56:12;59.80;;;22.90;;
39276;SDS011;63149;48.086;-1.606;2022-12-18T17:58:40;39.05;;;17.45;;
39276;SDS011;63149;48.086;-1.606;2022-12-18T18:01:07;38.47;;;20.48;;
39276;SDS011;63149;48.086;-1.606;2022-12-18T18:03:39;35.63;;;18.75;;
39276;SDS011;63149;48.086;-1.606;2022-12-18T18:06:06;30.70;;;19.15;;
39276;SDS011;63149;48.086;-1.606;2022-12-18T18:08:34;25.08;;;15.18;;
39276;SDS011;63149;48.086;-1.606;2022-12-18T18:11:03;25.55;;;15.55;;
39276;SDS011;63149;48.086;-1.606;2022-12-18T18:13:44;30.75;;;15.10;;
39276;SDS011;63149;48.086;-1.606;2022-12-18T18:16:27;30.15;;;18.65;;
39276;SDS011;63149;48.086;-1.606;2022-12-18T18:18:59;24.15;;;14.20;;
39276;SDS011;63149;48.086;-1.606;2022-12-18T18:21:28;31.17;;;20.48;;
39276;SDS011;63149;48.086;-1.606;2022-12-18T18:23:57;31.67;;;19.02;;
39276;SDS011;63149;48.086;-1.606;2022-12-18T18:26:26;28.13;;;15.07;;
39276;SDS011;63149;48.086;-1.606;2022-12-18T18:28:55;25.85;;;17.38;;
39276;SDS011;63149;48.086;-1.606;2022-12-18T18:31:24;22.65;;;16.17;;
39276;SDS011;63149;48.086;-1.606;2022-12-18T18:33:51;25.20;;;15.57;;
39276;SDS011;63149;48.086;-1.606;2022-12-18T18:36:20;20.67;;;13.55;;
39276;SDS011;63149;48.086;-1.606;2022-12-18T18:38:47;28.10;;;16.48;;
39276;SDS011;63149;48.086;-1.606;2022-12-18T18:41:15;23.35;;;15.52;;
39276;SDS011;63149;48.086;-1.606;2022-12-18T18:43:43;22.02;;;13.50;;
39276;SDS011;63149;48.086;-1.606;2022-12-18T18:46:11;23.45;;;15.50;;
39276;SDS011;63149;48.086;-1.606;2022-12-18T18:48:39;34.50;;;23.23;;
39276;SDS011;63149;48.086;-1.606;2022-12-18T18:51:07;25.30;;;15.05;;
39276;SDS011;63149;48.086;-1.606;2022-12-18T18:53:38;26.98;;;16.80;;
39276;SDS011;63149;48.086;-1.606;2022-12-18T18:56:07;23.65;;;13.90;;
39276;SDS011;63149;48.086;-1.606;2022-12-18T18:58:35;17.85;;;11.88;;
39276;SDS011;63149;48.086;-1.606;2022-12-18T19:01:04;22.25;;;12.38;;
39276;SDS011;63149;48.086;-1.606;2022-12-18T19:03:32;21.23;;;12.77;;
39276;SDS011;63149;48.086;-1.606;2022-12-18T19:06:01;26.83;;;15.10;;
39276;SDS011;63149;48.086;-1.606;2022-12-18T19:08:31;17.10;;;12.00;;
39276;SDS011;63149;48.086;-1.606;2022-12-18T19:11:01;20.90;;;11.93;;
39276;SDS011;63149;48.086;-1.606;2022-12-18T19:13:31;17.80;;;11.13;;
39276;SDS011;63149;48.086;-1.606;2022-12-18T19:16:01;16.33;;;11.05;;
39276;SDS011;63149;48.086;-1.606;2022-12-18T19:18:29;20.05;;;11.38;;
39276;SDS011;63149;48.086;-1.606;2022-12-18T19:20:57;21.02;;;12.15;;
39276;SDS011;63149;48.086;-1.606;2022-12-18T19:23:25;24.17;;;11.40;;
39276;SDS011;63149;48.086;-1.606;2022-12-18T19:25:53;20.60;;;11.57;;
39276;SDS011;63149;48.086;-1.606;2022-12-18T19:28:21;24.83;;;11.32;;
39276;SDS011;63149;48.086;-1.606;2022-12-18T19:30:53;21.85;;;11.77;;
39276;SDS011;63149;48.086;-1.606;2022-12-18T19:33:21;24.02;;;12.25;;
39276;SDS011;63149;48.086;-1.606;2022-12-18T19:35:49;17.63;;;11.32;;
39276;SDS011;63149;48.086;-1.606;2022-12-18T19:38:16;19.42;;;11.38;;
39276;SDS011;63149;48.086;-1.606;2022-12-18T19:40:43;22.90;;;12.77;;
39276;SDS011;63149;48.086;-1.606;2022-12-18T19:43:10;21.45;;;11.00;;
39276;SDS011;63149;48.086;-1.606;2022-12-18T19:45:41;20.85;;;12.20;;
39276;SDS011;63149;48.086;-1.606;2022-12-18T19:48:08;18.52;;;11.60;;
39276;SDS011;63149;48.086;-1.606;2022-12-18T19:50:38;18.83;;;11.07;;
39276;SDS011;63149;48.086;-1.606;2022-12-18T19:53:06;22.83;;;11.65;;
39276;SDS011;63149;48.086;-1.606;2022-12-18T19:55:38;15.10;;;10.57;;
39276;SDS011;63149;48.086;-1.606;2022-12-18T19:58:05;20.45;;;11.50;;
39276;SDS011;63149;48.086;-1.606;2022-12-18T20:00:32;18.23;;;10.05;;
39276;SDS011;63149;48.086;-1.606;2022-12-18T20:03:01;18.63;;;11.00;;
39276;SDS011;63149;48.086;-1.606;2022-12-18T20:05:28;18.58;;;11.38;;
39276;SDS011;63149;48.086;-1.606;2022-12-18T20:07:55;15.70;;;9.05;;
39276;SDS011;63149;48.086;-1.606;2022-12-18T20:10:22;23.95;;;12.82;;
39276;SDS011;63149;48.086;-1.606;2022-12-18T20:12:49;20.42;;;10.60;;
39276;SDS011;63149;48.086;-1.606;2022-12-18T20:15:16;17.40;;;11.27;;
39276;SDS011;63149;48.086;-1.606;2022-12-18T20:17:43;17.08;;;8.73;;
39276;SDS011;63149;48.086;-1.606;2022-12-18T20:20:11;17.58;;;10.82;;
39276;SDS011;63149;48.086;-1.606;2022-12-18T20:22:38;15.32;;;9.80;;
39276;SDS011;63149;48.086;-1.606;2022-12-18T20:25:06;18.23;;;9.82;;
39276;SDS011;63149;48.086;-1.606;2022-12-18T20:27:33;20.40;;;12.80;;
39276;SDS011;63149;48.086;-1.606;2022-12-18T20:30:00;17.95;;;10.70;;
39276;SDS011;63149;48.086;-1.606;2022-12-18T20:32:27;17.17;;;9.85;;
39276;SDS011;63149;48.086;-1.606;2022-12-18T20:34:54;16.77;;;9.88;;
39276;SDS011;63149;48.086;-1.606;2022-12-18T20:37:22;16.73;;;9.38;;
39276;SDS011;63149;48.086;-1.606;2022-12-18T20:39:49;15.93;;;8.85;;
39276;SDS011;63149;48.086;-1.606;2022-12-18T20:42:17;17.25;;;11.20;;
39276;SDS011;63149;48.086;-1.606;2022-12-18T20:44:44;40.03;;;24.38;;
39276;SDS011;63149;48.086;-1.606;2022-12-18T20:47:11;28.90;;;16.45;;
39276;SDS011;63149;48.086;-1.606;2022-12-18T20:49:38;28.13;;;15.52;;
39276;SDS011;63149;48.086;-1.606;2022-12-18T20:52:05;16.05;;;8.80;;
39276;SDS011;63149;48.086;-1.606;2022-12-18T20:54:33;23.25;;;12.23;;
39276;SDS011;63149;48.086;-1.606;2022-12-18T20:57:00;14.07;;;8.68;;
39276;SDS011;63149;48.086;-1.606;2022-12-18T20:59:27;16.50;;;8.98;;
39276;SDS011;63149;48.086;-1.606;2022-12-18T21:01:54;16.13;;;8.93;;
39276;SDS011;63149;48.086;-1.606;2022-12-18T21:04:22;18.42;;;8.77;;
39276;SDS011;63149;48.086;-1.606;2022-12-18T21:06:49;14.38;;;7.63;;
39276;SDS011;63149;48.086;-1.606;2022-12-18T21:09:17;14.30;;;8.88;;
39276;SDS011;63149;48.086;-1.606;2022-12-18T21:11:45;14.80;;;8.25;;
39276;SDS011;63149;48.086;-1.606;2022-12-18T21:14:30;16.42;;;9.63;;